Time;durP1;ratioP1;P1;durP2;ratioP2;P2;SDS_P1;SDS_P2;PMS_P1;PMS_P2;Temp;Humidity;BMP_temperature;BMP_pressure;BME280_temperature;BME280_humidity;BME280_pressure;Samples;Min_cycle;Max_cycle;Signal;HPM_P1;HPM_P2
2023/05/29 00:01:24;;;;;;;1.33;1.30;;;17.40;99.90;;;;;;5085096;28;20375;-62
2023/05/29 00:03:51;;;;;;;1.55;1.45;;;17.30;99.90;;;;;;5083935;28;20211;-63
2023/05/29 00:06:19;;;;;;;1.50;1.50;;;17.30;99.90;;;;;;5078533;28;20226;-63
2023/05/29 00:08:46;;;;;;;1.40;1.40;;;17.40;99.90;;;;;;5075261;28;20210;-62
2023/05/29 00:11:14;;;;;;;1.42;1.40;;;17.20;99.90;;;;;;5074011;28;20271;-62
2023/05/29 00:13:42;;;;;;;1.20;1.20;;;17.30;99.90;;;;;;5074459;28;20211;-64
2023/05/29 00:16:09;;;;;;;1.60;1.50;;;17.30;99.90;;;;;;5074019;28;20292;-61
2023/05/29 00:18:36;;;;;;;1.30;1.30;;;17.30;99.90;;;;;;5073869;28;20310;-61
2023/05/29 00:21:03;;;;;;;1.58;1.48;;;17.30;99.90;;;;;;5072927;28;20298;-62
2023/05/29 00:23:30;;;;;;;1.30;1.25;;;17.20;99.90;;;;;;5074176;28;20211;-62
2023/05/29 00:25:57;;;;;;;1.58;1.48;;;17.20;99.90;;;;;;5073558;28;20678;-62
2023/05/29 00:28:23;;;;;;;1.20;1.20;;;17.20;99.90;;;;;;5074058;28;20293;-61
2023/05/29 00:30:52;;;;;;;1.40;1.40;;;17.10;99.90;;;;;;5073753;28;20600;-62
2023/05/29 00:33:19;;;;;;;1.42;1.33;;;17.10;99.90;;;;;;5073938;28;20366;-61
2023/05/29 00:35:45;;;;;;;1.45;1.35;;;17.00;99.90;;;;;;5073877;28;20207;-62
2023/05/29 00:38:12;;;;;;;1.48;1.40;;;17.00;99.90;;;;;;5073834;28;20204;-62
2023/05/29 00:40:40;;;;;;;1.27;1.27;;;17.00;99.90;;;;;;5072369;28;20219;-63
2023/05/29 00:43:07;;;;;;;1.35;1.25;;;17.00;99.90;;;;;;5073712;28;20200;-62
2023/05/29 00:45:36;;;;;;;1.77;1.67;;;17.00;99.90;;;;;;5073101;28;20747;-62
2023/05/29 00:48:04;;;;;;;1.50;1.40;;;16.90;99.90;;;;;;5073935;28;20222;-62
2023/05/29 00:50:32;;;;;;;1.73;1.63;;;16.80;99.90;;;;;;5072768;28;20280;-62
2023/05/29 00:53:01;;;;;;;1.60;1.50;;;16.70;99.90;;;;;;5073493;28;20207;-63
2023/05/29 00:55:28;;;;;;;1.52;1.42;;;16.70;99.90;;;;;;5073429;28;20210;-62
2023/05/29 00:57:55;;;;;;;1.55;1.45;;;16.70;99.90;;;;;;5073488;28;20201;-63
2023/05/29 01:00:23;;;;;;;1.50;1.40;;;16.70;99.90;;;;;;5072403;28;20215;-62
2023/05/29 01:02:52;;;;;;;1.48;1.40;;;16.70;99.90;;;;;;5073977;28;20625;-63
2023/05/29 01:05:21;;;;;;;1.63;1.52;;;16.70;99.90;;;;;;5073563;28;20214;-62
2023/05/29 01:07:48;;;;;;;1.20;1.20;;;16.60;99.90;;;;;;5073602;28;20204;-63
2023/05/29 01:10:16;;;;;;;1.40;1.40;;;16.60;99.90;;;;;;5072072;28;20277;-63
2023/05/29 01:12:48;;;;;;;1.50;1.40;;;16.50;99.90;;;;;;5072483;28;20283;-63
2023/05/29 01:15:22;;;;;;;1.60;1.50;;;16.40;99.90;;;;;;5073681;28;20196;-62
2023/05/29 01:18:03;;;;;;;1.20;1.20;;;16.30;99.90;;;;;;5073378;28;20191;-63
2023/05/29 01:20:36;;;;;;;1.92;1.52;;;16.30;99.90;;;;;;5072965;28;20226;-63
2023/05/29 01:23:15;;;;;;;1.60;1.50;;;16.30;99.90;;;;;;5073495;28;20199;-63
2023/05/29 01:25:57;;;;;;;1.52;1.48;;;16.20;99.90;;;;;;5075767;28;20203;-63
2023/05/29 01:28:29;;;;;;;1.40;1.40;;;16.20;99.90;;;;;;5075392;28;20203;-62
2023/05/29 01:30:58;;;;;;;1.42;1.42;;;16.10;99.90;;;;;;5079186;28;20207;-66
2023/05/29 01:33:24;;;;;;;1.80;1.70;;;16.00;99.90;;;;;;5078351;28;20303;-62
2023/05/29 01:35:51;;;;;;;1.50;1.40;;;16.00;99.90;;;;;;5079933;28;20207;-62
2023/05/29 01:38:18;;;;;;;1.60;1.50;;;15.90;99.90;;;;;;5075491;28;20199;-63
2023/05/29 01:40:45;;;;;;;1.52;1.45;;;16.00;99.90;;;;;;5071856;28;20249;-63
2023/05/29 01:43:14;;;;;;;1.60;1.50;;;16.00;99.90;;;;;;5071849;28;20280;-61
2023/05/29 01:45:42;;;;;;;1.60;1.50;;;16.10;99.90;;;;;;5071911;28;20635;-61
2023/05/29 01:48:09;;;;;;;1.48;1.30;;;16.00;99.90;;;;;;5072720;28;20188;-61
2023/05/29 01:50:37;;;;;;;1.50;1.40;;;16.20;99.90;;;;;;5071508;28;20227;-63
2023/05/29 01:53:04;;;;;;;1.77;1.67;;;16.10;99.90;;;;;;5072064;28;20625;-62
2023/05/29 01:55:31;;;;;;;1.17;1.17;;;16.10;99.90;;;;;;5071912;28;20204;-61
2023/05/29 01:57:58;;;;;;;1.50;1.40;;;16.10;99.90;;;;;;5071962;28;20209;-63
2023/05/29 02:00:25;;;;;;;1.50;1.40;;;16.10;99.90;;;;;;5071369;28;20227;-62
2023/05/29 02:02:53;;;;;;;1.30;1.30;;;16.10;99.90;;;;;;5071879;28;20206;-68
2023/05/29 02:05:21;;;;;;;1.30;1.30;;;15.90;99.90;;;;;;5072186;28;20681;-61
2023/05/29 02:07:48;;;;;;;1.58;1.48;;;15.90;99.90;;;;;;5071887;28;20207;-61
2023/05/29 02:10:15;;;;;;;1.27;1.27;;;15.90;99.90;;;;;;5070929;28;20314;-62
2023/05/29 02:12:42;;;;;;;1.60;1.50;;;15.90;99.90;;;;;;5072333;28;20211;-62
2023/05/29 02:15:10;;;;;;;1.65;1.55;;;15.90;99.90;;;;;;5075453;28;20312;-65
2023/05/29 02:17:37;;;;;;;1.45;1.35;;;15.90;99.90;;;;;;5072097;28;20203;-61
2023/05/29 02:20:07;;;;;;;1.30;1.30;;;15.80;99.90;;;;;;5070818;28;20310;-61
2023/05/29 02:22:34;;;;;;;1.48;1.38;;;15.70;99.90;;;;;;5071573;28;20222;-62
2023/05/29 02:25:01;;;;;;;1.43;1.43;;;15.70;99.90;;;;;;5071274;28;20214;-63
2023/05/29 02:27:27;;;;;;;1.40;1.40;;;15.70;99.90;;;;;;5071182;28;20349;-61
2023/05/29 02:29:54;;;;;;;1.50;1.40;;;15.70;99.90;;;;;;5070481;28;20223;-63
2023/05/29 02:32:22;;;;;;;1.20;1.20;;;15.70;99.90;;;;;;5071364;28;20601;-62
2023/05/29 02:34:49;;;;;;;1.45;1.35;;;15.70;99.90;;;;;;5071442;28;20306;-62
2023/05/29 02:37:17;;;;;;;1.42;1.33;;;15.70;99.90;;;;;;5071729;28;20306;-61
2023/05/29 02:39:44;;;;;;;1.55;1.45;;;15.60;99.90;;;;;;5071256;28;20227;-61
2023/05/29 02:42:11;;;;;;;1.30;1.30;;;15.60;99.90;;;;;;5071249;28;20202;-63
2023/05/29 02:44:38;;;;;;;1.25;1.25;;;15.60;99.90;;;;;;5070615;28;20302;-63
2023/05/29 02:47:05;;;;;;;1.50;1.40;;;15.70;99.90;;;;;;5070952;28;20546;-62
2023/05/29 02:49:32;;;;;;;1.02;1.02;;;15.60;99.90;;;;;;5070602;28;20227;-61
2023/05/29 02:51:59;;;;;;;1.30;1.30;;;15.60;99.90;;;;;;5071717;28;20701;-62
2023/05/29 02:54:27;;;;;;;1.40;1.30;;;15.60;99.90;;;;;;5072343;28;20207;-62
2023/05/29 02:56:54;;;;;;;1.42;1.30;;;15.60;99.90;;;;;;5071559;28;20210;-62
2023/05/29 02:59:21;;;;;;;1.20;1.20;;;15.50;99.90;;;;;;5070507;28;20227;-61
2023/05/29 03:01:48;;;;;;;1.10;1.10;;;15.50;99.90;;;;;;5071146;28;20885;-61
2023/05/29 03:04:17;;;;;;;1.10;1.10;;;15.50;99.90;;;;;;5070964;28;20257;-63
2023/05/29 03:06:45;;;;;;;1.20;1.20;;;15.50;99.90;;;;;;5070900;28;20267;-62
2023/05/29 03:09:12;;;;;;;1.40;1.30;;;15.40;99.90;;;;;;5070313;28;20238;-61
2023/05/29 03:11:40;;;;;;;1.33;1.33;;;15.20;99.90;;;;;;5070887;28;20226;-61
2023/05/29 03:14:07;;;;;;;1.65;1.30;;;15.20;99.90;;;;;;5071093;28;20229;-61
2023/05/29 03:16:35;;;;;;;1.17;1.17;;;15.40;99.90;;;;;;5070652;28;20302;-61
2023/05/29 03:19:02;;;;;;;1.08;1.08;;;15.40;99.90;;;;;;5070169;28;20908;-61
2023/05/29 03:21:31;;;;;;;1.35;1.30;;;15.30;99.90;;;;;;5070212;28;20198;-61
2023/05/29 03:23:58;;;;;;;1.58;1.48;;;15.30;99.90;;;;;;5070805;28;20203;-61
2023/05/29 03:26:25;;;;;;;1.30;1.30;;;15.40;99.90;;;;;;5070389;28;20231;-61
2023/05/29 03:28:53;;;;;;;1.33;1.33;;;15.40;99.90;;;;;;5072428;28;20635;-61
2023/05/29 03:31:20;;;;;;;1.10;1.10;;;15.40;99.90;;;;;;5083754;28;20215;-62
2023/05/29 03:33:47;;;;;;;1.23;1.23;;;15.30;99.90;;;;;;5078225;28;20294;-63
2023/05/29 03:36:16;;;;;;;1.10;1.10;;;15.40;99.90;;;;;;5074454;28;20249;-62
2023/05/29 03:38:43;;;;;;;1.30;1.30;;;15.50;99.90;;;;;;5074628;28;20618;-61
2023/05/29 03:41:10;;;;;;;1.23;1.23;;;15.50;99.90;;;;;;5073963;28;20559;-63
2023/05/29 03:43:37;;;;;;;1.27;1.27;;;15.50;99.90;;;;;;5076703;28;20203;-62
2023/05/29 03:46:05;;;;;;;1.13;1.13;;;15.40;99.90;;;;;;5075827;28;20213;-63
2023/05/29 03:48:32;;;;;;;1.20;1.20;;;15.30;99.90;;;;;;5075069;28;20301;-61
2023/05/29 03:50:59;;;;;;;1.15;1.15;;;15.30;99.90;;;;;;5075006;28;20219;-62
2023/05/29 03:53:26;;;;;;;1.20;1.20;;;15.30;99.90;;;;;;5074600;28;20211;-62
2023/05/29 03:55:52;;;;;;;1.20;1.20;;;15.20;99.90;;;;;;5074011;28;20606;-62
2023/05/29 03:58:19;;;;;;;1.50;1.40;;;15.20;99.90;;;;;;5074301;28;20199;-61
2023/05/29 04:00:46;;;;;;;1.33;1.33;;;15.20;99.90;;;;;;5073215;28;20223;-62
2023/05/29 04:03:14;;;;;;;1.35;1.35;;;15.20;99.90;;;;;;5073767;28;20751;-62
2023/05/29 04:05:41;;;;;;;1.50;1.40;;;15.20;99.90;;;;;;5074236;28;20276;-63
2023/05/29 04:08:08;;;;;;;1.30;1.25;;;15.20;99.90;;;;;;5074108;28;20209;-61
2023/05/29 04:10:36;;;;;;;1.70;1.60;;;15.10;99.90;;;;;;5073087;28;20246;-62
2023/05/29 04:13:03;;;;;;;1.45;1.35;;;15.10;99.90;;;;;;5074877;28;20249;-61
2023/05/29 04:15:30;;;;;;;1.40;1.30;;;15.10;99.90;;;;;;5081912;28;20290;-62
2023/05/29 04:17:57;;;;;;;1.48;1.38;;;15.00;99.90;;;;;;5086657;28;20274;-62
2023/05/29 04:20:25;;;;;;;1.27;1.27;;;15.00;99.90;;;;;;5081404;28;20286;-62
2023/05/29 04:22:52;;;;;;;1.50;1.40;;;14.90;99.90;;;;;;5081749;28;20210;-61
2023/05/29 04:25:19;;;;;;;1.45;1.45;;;14.90;99.90;;;;;;5078021;28;20293;-61
2023/05/29 04:27:48;;;;;;;1.40;1.30;;;14.90;99.90;;;;;;5074201;28;20706;-62
2023/05/29 04:30:15;;;;;;;1.70;1.60;;;15.00;99.90;;;;;;5072762;28;20227;-62
2023/05/29 04:32:43;;;;;;;1.30;1.30;;;15.00;99.90;;;;;;5072981;28;20721;-61
2023/05/29 04:35:10;;;;;;;1.73;1.25;;;14.90;99.90;;;;;;5073277;28;20188;-61
2023/05/29 04:37:39;;;;;;;1.67;1.58;;;14.90;99.90;;;;;;5073403;28;20657;-61
2023/05/29 04:40:08;;;;;;;1.42;1.33;;;14.90;99.90;;;;;;5073031;28;20227;-61
2023/05/29 04:42:35;;;;;;;1.30;1.30;;;14.90;99.90;;;;;;5075165;28;20199;-62
2023/05/29 04:45:03;;;;;;;1.25;1.25;;;15.00;99.90;;;;;;5074520;28;20203;-62
2023/05/29 04:47:32;;;;;;;1.20;1.20;;;15.00;99.90;;;;;;5073121;28;20217;-62
2023/05/29 04:50:00;;;;;;;1.13;1.13;;;15.10;99.90;;;;;;5072293;28;20249;-62
2023/05/29 04:52:28;;;;;;;1.13;1.13;;;15.10;99.90;;;;;;5072722;28;20219;-62
2023/05/29 04:54:57;;;;;;;1.20;1.20;;;15.20;99.90;;;;;;5073028;28;20206;-63
2023/05/29 04:57:24;;;;;;;1.30;1.20;;;15.30;99.90;;;;;;5072364;28;20202;-61
2023/05/29 04:59:51;;;;;;;1.10;1.10;;;15.40;99.90;;;;;;5072275;28;20237;-63
2023/05/29 05:02:17;;;;;;;1.40;1.40;;;15.40;99.90;;;;;;5072798;28;20211;-62
2023/05/29 05:04:45;;;;;;;1.48;1.42;;;15.40;99.90;;;;;;5072532;28;20563;-62
2023/05/29 05:07:12;;;;;;;1.20;1.20;;;15.50;99.90;;;;;;5072590;28;20207;-62
2023/05/29 05:09:39;;;;;;;1.50;1.38;;;15.50;99.90;;;;;;5071716;28;20227;-62
2023/05/29 05:12:08;;;;;;;1.23;1.23;;;15.60;99.90;;;;;;5072380;28;20537;-62
2023/05/29 05:14:35;;;;;;;1.30;1.30;;;15.70;99.90;;;;;;5072644;28;20203;-62
2023/05/29 05:17:02;;;;;;;1.10;1.10;;;15.90;99.90;;;;;;5072624;28;20203;-61
2023/05/29 05:19:29;;;;;;;1.20;1.20;;;16.10;99.90;;;;;;5072090;28;20223;-62
2023/05/29 05:21:56;;;;;;;1.85;1.75;;;16.30;99.90;;;;;;5072375;28;20195;-61
2023/05/29 05:24:22;;;;;;;1.65;1.55;;;16.40;99.90;;;;;;5072366;28;20294;-63
2023/05/29 05:26:49;;;;;;;1.52;1.42;;;16.60;99.90;;;;;;5076014;28;20217;-63
2023/05/29 05:29:18;;;;;;;1.45;1.45;;;16.70;99.90;;;;;;5078730;28;20260;-62
2023/05/29 05:31:46;;;;;;;1.63;1.52;;;16.80;99.90;;;;;;5071784;28;20262;-61
2023/05/29 05:34:13;;;;;;;1.50;1.40;;;16.90;99.90;;;;;;5071546;28;20673;-62
2023/05/29 05:36:40;;;;;;;1.70;1.60;;;17.00;99.90;;;;;;5071992;28;20207;-63
2023/05/29 05:39:07;;;;;;;1.60;1.50;;;17.10;99.90;;;;;;5071087;28;20233;-62
2023/05/29 05:41:33;;;;;;;1.67;1.58;;;17.30;99.90;;;;;;5071704;28;20285;-63
2023/05/29 05:44:00;;;;;;;1.40;1.40;;;17.40;99.90;;;;;;5072165;28;20235;-63
2023/05/29 05:46:28;;;;;;;1.40;1.30;;;17.50;99.90;;;;;;5071449;28;20206;-62
2023/05/29 05:48:57;;;;;;;1.45;1.33;;;17.70;99.90;;;;;;5071800;28;20223;-62
2023/05/29 05:51:24;;;;;;;1.70;1.60;;;17.90;99.90;;;;;;5070932;28;20238;-62
2023/05/29 05:53:51;;;;;;;1.60;1.50;;;18.00;99.90;;;;;;5073930;28;20533;-67
2023/05/29 05:56:18;;;;;;;1.55;1.45;;;18.10;99.90;;;;;;5073892;28;20290;-64
2023/05/29 05:58:44;;;;;;;1.60;1.50;;;18.30;99.90;;;;;;5083849;28;20239;-62
2023/05/29 06:01:11;;;;;;;1.20;1.20;;;18.50;99.90;;;;;;5085589;28;20207;-62
2023/05/29 06:03:39;;;;;;;1.70;1.60;;;18.60;99.90;;;;;;5085024;28;20264;-62
2023/05/29 06:06:07;;;;;;;1.50;1.40;;;18.70;99.90;;;;;;5085427;28;20207;-63
2023/05/29 06:08:34;;;;;;;1.60;1.50;;;18.80;99.90;;;;;;5086726;28;20206;-62
2023/05/29 06:11:01;;;;;;;1.70;1.60;;;18.90;99.90;;;;;;5083732;28;20215;-62
2023/05/29 06:13:28;;;;;;;1.52;1.50;;;18.80;99.90;;;;;;5086085;28;20314;-62
2023/05/29 06:15:54;;;;;;;1.60;1.50;;;18.70;99.90;;;;;;5091800;28;20233;-61
2023/05/29 06:18:21;;;;;;;1.70;1.60;;;18.60;99.90;;;;;;5089967;28;20403;-62
2023/05/29 06:20:50;;;;;;;1.98;1.88;;;18.60;99.90;;;;;;5082617;28;20238;-62
2023/05/29 06:23:17;;;;;;;1.70;1.60;;;18.60;99.90;;;;;;5076539;28;20643;-61
2023/05/29 06:25:44;;;;;;;1.88;1.77;;;18.70;99.90;;;;;;5074225;28;20233;-62
2023/05/29 06:28:11;;;;;;;2.15;1.70;;;18.70;99.90;;;;;;5073694;28;20286;-63
2023/05/29 06:30:38;;;;;;;2.67;1.80;;;18.70;99.90;;;;;;5072620;28;20225;-62
2023/05/29 06:33:05;;;;;;;1.60;1.50;;;18.70;99.90;;;;;;5072506;28;20234;-62
2023/05/29 06:35:32;;;;;;;1.60;1.50;;;18.80;99.90;;;;;;5072309;28;20210;-61
2023/05/29 06:38:00;;;;;;;1.75;1.65;;;18.90;99.90;;;;;;5072206;28;20211;-61
2023/05/29 06:40:27;;;;;;;2.50;1.63;;;18.90;99.90;;;;;;5072608;28;20310;-62
2023/05/29 06:42:54;;;;;;;1.67;1.58;;;19.10;99.90;;;;;;5071309;28;20203;-61
2023/05/29 06:45:20;;;;;;;1.35;1.35;;;19.30;99.90;;;;;;5071346;28;20207;-61
2023/05/29 06:47:47;;;;;;;1.70;1.60;;;19.40;99.90;;;;;;5071800;28;20615;-61
2023/05/29 06:50:15;;;;;;;1.70;1.60;;;19.40;99.90;;;;;;5072183;28;20243;-63
2023/05/29 06:52:42;;;;;;;1.70;1.60;;;19.40;99.90;;;;;;5071558;28;20314;-62
2023/05/29 06:55:10;;;;;;;1.80;1.70;;;19.50;99.90;;;;;;5077953;28;20302;-61
2023/05/29 06:57:37;;;;;;;1.85;1.67;;;19.50;99.90;;;;;;5078629;28;20294;-61
2023/05/29 07:00:06;;;;;;;1.70;1.60;;;19.40;99.90;;;;;;5075029;28;20241;-62
2023/05/29 07:02:32;;;;;;;1.30;1.30;;;19.50;99.90;;;;;;5065570;28;20208;-62
2023/05/29 07:04:59;;;;;;;1.83;1.55;;;19.60;99.90;;;;;;5072195;28;20198;-62
2023/05/29 07:07:26;;;;;;;1.80;1.70;;;19.70;99.90;;;;;;5073139;28;20204;-61
2023/05/29 07:09:53;;;;;;;2.25;1.50;;;19.90;99.90;;;;;;5074649;28;20607;-62
2023/05/29 07:12:23;;;;;;;1.40;1.40;;;19.90;99.90;;;;;;5074301;28;20215;-61
2023/05/29 07:14:50;;;;;;;1.30;1.30;;;20.10;99.90;;;;;;5070206;28;20203;-62
2023/05/29 07:17:17;;;;;;;1.98;1.77;;;20.10;99.90;;;;;;5070662;28;20654;-62
2023/05/29 07:19:44;;;;;;;1.20;1.20;;;20.10;99.90;;;;;;5058302;28;20227;-62
2023/05/29 07:22:11;;;;;;;1.83;1.73;;;20.20;99.90;;;;;;5074049;28;20640;-62
2023/05/29 07:24:37;;;;;;;1.40;1.30;;;20.30;99.90;;;;;;5055185;28;20220;-62
2023/05/29 07:27:05;;;;;;;1.50;1.40;;;20.50;99.90;;;;;;5055204;28;20235;-62
2023/05/29 07:29:33;;;;;;;1.20;1.20;;;20.60;99.90;;;;;;5054157;28;20227;-62
2023/05/29 07:32:00;;;;;;;1.58;1.48;;;20.70;99.90;;;;;;5074556;28;20203;-61
2023/05/29 07:34:27;;;;;;;1.50;1.40;;;20.80;99.90;;;;;;5074477;28;20198;-62
2023/05/29 07:36:59;;;;;;;1.90;1.30;;;20.90;99.90;;;;;;5066710;28;20280;-62
2023/05/29 07:39:26;;;;;;;1.50;1.40;;;21.00;99.90;;;;;;5071022;28;20678;-62
2023/05/29 07:41:53;;;;;;;1.17;1.17;;;21.10;99.90;;;;;;5065523;28;20207;-62
2023/05/29 07:44:20;;;;;;;1.73;1.60;;;21.20;99.90;;;;;;5073805;28;20204;-62
2023/05/29 07:46:49;;;;;;;2.05;1.40;;;21.20;99.90;;;;;;5073539;28;20238;-61
2023/05/29 07:49:16;;;;;;;1.20;1.20;;;21.30;99.90;;;;;;5073100;28;20416;-61
2023/05/29 07:51:43;;;;;;;1.35;1.30;;;21.30;99.90;;;;;;5073645;28;20241;-60
2023/05/29 07:54:10;;;;;;;1.70;1.60;;;21.40;99.90;;;;;;5074290;28;20223;-62
2023/05/29 07:56:37;;;;;;;1.70;1.60;;;21.50;99.90;;;;;;5074108;28;20204;-61
2023/05/29 07:59:04;;;;;;;1.60;1.50;;;21.50;99.90;;;;;;5073372;28;20839;-62
2023/05/29 08:01:31;;;;;;;1.70;1.60;;;21.60;99.90;;;;;;5069708;28;20646;-61
2023/05/29 08:03:59;;;;;;;1.40;1.40;;;21.80;99.90;;;;;;5084861;28;20677;-62
2023/05/29 08:06:26;;;;;;;1.33;1.33;;;21.90;99.90;;;;;;5080954;28;20200;-62
2023/05/29 08:08:53;;;;;;;1.58;1.48;;;22.00;99.90;;;;;;5085305;28;20246;-61
2023/05/29 08:11:20;;;;;;;1.40;1.30;;;22.10;99.90;;;;;;5069421;28;20988;-62
2023/05/29 08:13:47;;;;;;;1.30;1.30;;;22.10;99.90;;;;;;5071544;28;20215;-61
2023/05/29 08:16:16;;;;;;;1.20;1.20;;;22.20;99.90;;;;;;5067901;28;20673;-61
2023/05/29 08:18:43;;;;;;;1.70;1.60;;;22.20;99.90;;;;;;5072706;28;20203;-62
2023/05/29 08:21:12;;;;;;;1.60;1.50;;;22.30;99.90;;;;;;5071749;28;20662;-63
2023/05/29 08:23:39;;;;;;;1.30;1.30;;;22.40;99.90;;;;;;5071530;28;20623;-62
2023/05/29 08:26:06;;;;;;;1.25;1.25;;;22.50;99.90;;;;;;5080294;28;20218;-62
2023/05/29 08:28:33;;;;;;;1.63;1.52;;;22.60;99.90;;;;;;5080031;28;20207;-62
2023/05/29 08:31:00;;;;;;;1.30;1.30;;;22.60;99.90;;;;;;5079973;28;20221;-62
2023/05/29 08:33:27;;;;;;;2.08;1.50;;;22.70;99.90;;;;;;5075167;28;20227;-62
2023/05/29 08:35:53;;;;;;;1.70;1.60;;;22.80;99.90;;;;;;5073999;28;20236;-62
2023/05/29 08:38:22;;;;;;;1.60;1.50;;;22.80;99.90;;;;;;5073619;28;20294;-62
2023/05/29 08:40:49;;;;;;;4.70;4.50;;;22.80;99.90;;;;;;5072713;28;20742;-61
2023/05/29 08:43:18;;;;;;;7.30;6.85;;;22.80;99.90;;;;;;5073479;28;20203;-62
2023/05/29 08:45:46;;;;;;;1.40;1.30;;;22.80;99.90;;;;;;5073135;28;20762;-61
2023/05/29 08:48:13;;;;;;;9.27;8.88;;;22.90;99.90;;;;;;5073416;28;20207;-63
2023/05/29 08:50:45;;;;;;;1.70;1.60;;;23.10;99.90;;;;;;5072212;28;20273;-63
2023/05/29 08:53:13;;;;;;;1.73;1.63;;;23.10;99.90;;;;;;5072804;28;20229;-61
2023/05/29 08:55:41;;;;;;;1.42;1.33;;;23.20;99.90;;;;;;5072644;28;20570;-62
2023/05/29 08:58:09;;;;;;;11.38;10.85;;;23.20;99.90;;;;;;5072933;28;20272;-61
2023/05/29 09:00:36;;;;;;;1.90;1.80;;;23.30;99.90;;;;;;5072457;28;20251;-61
2023/05/29 09:03:04;;;;;;;4.55;1.70;;;23.30;99.90;;;;;;5072760;28;20316;-62
2023/05/29 09:05:30;;;;;;;1.50;1.40;;;23.30;99.90;;;;;;5073107;28;20218;-65
2023/05/29 09:07:57;;;;;;;1.40;1.30;;;23.40;99.90;;;;;;5072832;28;20214;-62
2023/05/29 09:10:25;;;;;;;1.50;1.40;;;23.50;99.90;;;;;;5072177;28;20234;-62
2023/05/29 09:12:53;;;;;;;1.60;1.50;;;23.70;99.90;;;;;;5073616;28;20227;-62
2023/05/29 09:15:21;;;;;;;1.70;1.60;;;23.70;99.90;;;;;;5074005;28;20326;-62
2023/05/29 09:17:52;;;;;;;1.40;1.30;;;23.80;99.90;;;;;;5073246;28;20211;-62
2023/05/29 09:20:22;;;;;;;1.50;1.40;;;23.80;99.90;;;;;;5072666;28;20572;-61
2023/05/29 09:22:54;;;;;;;1.40;1.30;;;23.90;99.90;;;;;;5073618;28;20206;-62
2023/05/29 09:25:23;;;;;;;1.90;1.80;;;23.90;99.90;;;;;;5072600;28;20250;-61
2023/05/29 09:27:54;;;;;;;1.65;1.55;;;23.90;99.90;;;;;;5071648;28;20203;-62
2023/05/29 09:30:38;;;;;;;2.00;1.90;;;23.90;99.90;;;;;;5072693;28;20223;-62
2023/05/29 09:33:06;;;;;;;1.30;1.25;;;24.00;99.90;;;;;;5073146;28;20219;-61
2023/05/29 09:35:37;;;;;;;1.30;1.30;;;24.00;99.90;;;;;;5076295;28;20211;-62
2023/05/29 09:38:05;;;;;;;1.73;1.63;;;24.00;99.90;;;;;;5072928;28;20211;-62
2023/05/29 09:40:33;;;;;;;1.48;1.35;;;24.10;99.90;;;;;;5072511;28;20227;-62
2023/05/29 09:43:11;;;;;;;1.83;1.73;;;24.20;99.90;;;;;;5073846;28;20199;-61
2023/05/29 09:45:40;;;;;;;2.65;2.00;;;24.40;99.90;;;;;;5075122;28;20215;-61
2023/05/29 09:48:08;;;;;;;1.50;1.40;;;24.40;99.90;;;;;;5074787;28;20195;-62
2023/05/29 09:50:35;;;;;;;1.40;1.30;;;24.40;99.90;;;;;;5073212;28;20717;-62
2023/05/29 09:53:03;;;;;;;1.40;1.30;;;24.40;99.90;;;;;;5075929;28;20310;-62
2023/05/29 09:55:32;;;;;;;1.40;1.40;;;24.50;99.90;;;;;;5079755;28;20204;-63
2023/05/29 09:58:00;;;;;;;1.80;1.70;;;24.60;99.90;;;;;;5076814;28;20207;-62
2023/05/29 10:00:30;;;;;;;1.42;1.33;;;24.50;99.90;;;;;;5076603;28;20265;-62
2023/05/29 10:02:57;;;;;;;1.85;1.77;;;24.60;99.90;;;;;;5082201;28;20171;-62
2023/05/29 10:05:24;;;;;;;1.30;1.30;;;24.80;99.90;;;;;;5074600;28;20207;-61
2023/05/29 10:07:55;;;;;;;1.52;1.42;;;24.80;99.90;;;;;;5071419;28;20638;-62
2023/05/29 10:10:24;;;;;;;1.90;1.80;;;24.90;99.90;;;;;;5071761;28;20223;-62
2023/05/29 10:12:51;;;;;;;1.50;1.45;;;24.80;99.90;;;;;;5072289;28;20199;-62
2023/05/29 10:15:20;;;;;;;2.45;2.35;;;24.90;99.90;;;;;;5071814;28;20590;-62
2023/05/29 10:17:55;;;;;;;1.88;1.70;;;25.00;99.90;;;;;;5071547;28;20217;-62
2023/05/29 10:20:24;;;;;;;1.55;1.40;;;25.10;99.90;;;;;;5071344;28;20230;-62
2023/05/29 10:22:53;;;;;;;1.63;1.52;;;25.20;99.90;;;;;;5071795;28;20665;-61
2023/05/29 10:25:22;;;;;;;4.85;4.45;;;25.10;99.90;;;;;;5072026;28;20210;-62
2023/05/29 10:27:49;;;;;;;1.60;1.50;;;25.10;99.90;;;;;;5071937;28;20670;-61
2023/05/29 10:30:26;;;;;;;3.33;3.13;;;25.10;99.90;;;;;;5071062;28;20648;-61
2023/05/29 10:33:22;;;;;;;1.52;1.42;;;25.20;99.90;;;;;;5071412;28;20187;-62
2023/05/29 10:35:54;;;;;;;1.30;1.30;;;25.40;99.90;;;;;;5071376;28;20857;-61
2023/05/29 10:38:21;;;;;;;1.95;1.60;;;25.70;99.90;;;;;;5071018;28;20212;-61
2023/05/29 10:40:48;;;;;;;1.50;1.40;;;25.80;99.90;;;;;;5070396;28;20739;-63
2023/05/29 10:43:33;;;;;;;1.65;1.50;;;25.90;99.90;;;;;;5071142;28;20207;-63
2023/05/29 10:46:00;;;;;;;1.42;1.30;;;26.00;99.90;;;;;;5070066;28;20219;-63
2023/05/29 10:48:43;;;;;;;1.40;1.40;;;26.10;99.90;;;;;;5071830;28;20203;-61
2023/05/29 10:51:25;;;;;;;1.50;1.50;;;26.40;99.90;;;;;;5070403;28;20748;-62
2023/05/29 10:53:53;;;;;;;1.55;1.45;;;26.40;99.90;;;;;;5071025;28;20299;-63
2023/05/29 10:56:23;;;;;;;1.60;1.50;;;26.50;99.90;;;;;;5070969;28;20301;-62
2023/05/29 10:58:55;;;;;;;1.48;1.40;;;26.40;99.90;;;;;;5071346;28;20211;-62
2023/05/29 11:01:24;;;;;;;2.63;1.40;;;26.40;99.90;;;;;;5071595;28;20273;-63
2023/05/29 11:03:53;;;;;;;1.70;1.48;;;26.30;99.90;;;;;;5071731;28;20207;-62
2023/05/29 11:06:22;;;;;;;1.40;1.40;;;26.40;99.90;;;;;;5071432;28;20211;-63
2023/05/29 11:08:54;;;;;;;1.58;1.50;;;26.40;99.90;;;;;;5071894;28;20203;-63
2023/05/29 11:11:31;;;;;;;1.45;1.45;;;26.50;99.90;;;;;;5071203;28;20239;-62
2023/05/29 11:14:01;;;;;;;1.67;1.58;;;26.50;99.90;;;;;;5076799;28;20300;-62
2023/05/29 11:16:38;;;;;;;1.60;1.50;;;26.50;99.90;;;;;;5073624;28;20266;-62
2023/05/29 11:19:09;;;;;;;1.40;1.30;;;26.50;99.90;;;;;;5077158;28;20274;-62
2023/05/29 11:21:54;;;;;;;1.38;1.38;;;26.60;99.90;;;;;;5074184;28;20222;-62
2023/05/29 11:24:24;;;;;;;1.60;1.50;;;26.90;99.90;;;;;;5071707;28;20203;-63
2023/05/29 11:26:53;;;;;;;1.50;1.40;;;27.10;99.90;;;;;;5072789;28;20269;-62
2023/05/29 11:29:23;;;;;;;1.30;1.30;;;27.30;99.90;;;;;;5071301;28;20276;-62
2023/05/29 11:31:54;;;;;;;1.33;1.33;;;27.40;99.90;;;;;;5072801;28;20634;-63
2023/05/29 11:34:24;;;;;;;1.52;1.42;;;27.50;99.90;;;;;;5072997;28;20556;-63
2023/05/29 11:36:52;;;;;;;1.40;1.30;;;27.70;99.90;;;;;;5071676;28;20686;-62
2023/05/29 11:39:19;;;;;;;1.40;1.30;;;27.80;99.90;;;;;;5071134;28;20323;-62
2023/05/29 11:41:50;;;;;;;1.75;1.65;;;27.90;99.90;;;;;;5072678;28;20238;-63
2023/05/29 11:44:17;;;;;;;1.67;1.58;;;27.90;98.10;;;;;;5077006;28;20307;-62
2023/05/29 11:46:44;;;;;;;1.25;1.23;;;27.70;99.90;;;;;;5078096;28;20215;-62
2023/05/29 11:49:11;;;;;;;1.58;1.48;;;27.80;99.90;;;;;;5072281;28;20227;-61
2023/05/29 11:51:43;;;;;;;1.30;1.30;;;27.90;99.90;;;;;;5075297;28;20294;-62
2023/05/29 11:54:12;;;;;;;1.35;1.33;;;28.10;99.90;;;;;;5080037;28;20273;-62
2023/05/29 11:56:40;;;;;;;1.52;1.48;;;28.20;99.90;;;;;;5075263;28;20235;-61
2023/05/29 11:59:12;;;;;;;1.33;1.23;;;28.20;99.90;;;;;;5073798;28;20726;-61
2023/05/29 12:01:39;;;;;;;1.30;1.30;;;28.30;99.80;;;;;;5074561;28;20214;-63
2023/05/29 12:04:15;;;;;;;1.58;1.45;;;28.30;98.50;;;;;;5074758;28;20234;-62
2023/05/29 12:06:44;;;;;;;1.35;1.30;;;28.40;96.00;;;;;;5074668;28;20207;-62
2023/05/29 12:09:25;;;;;;;1.60;1.50;;;28.30;95.60;;;;;;5073630;28;20281;-62
2023/05/29 12:11:52;;;;;;;1.60;1.50;;;28.40;95.30;;;;;;5074451;28;20240;-61
2023/05/29 12:14:19;;;;;;;1.30;1.30;;;28.40;94.80;;;;;;5074348;28;20231;-62
2023/05/29 12:16:46;;;;;;;1.73;1.58;;;28.50;95.90;;;;;;5074036;28;20235;-61
2023/05/29 12:19:13;;;;;;;1.40;1.30;;;28.60;95.60;;;;;;5073497;28;20689;-61
2023/05/29 12:21:44;;;;;;;1.50;1.40;;;28.60;95.20;;;;;;5074943;28;20199;-61
2023/05/29 12:24:11;;;;;;;1.50;1.40;;;28.70;93.50;;;;;;5074645;28;20207;-62
2023/05/29 12:26:38;;;;;;;1.65;1.55;;;28.80;93.50;;;;;;5080921;28;20214;-62
2023/05/29 12:29:06;;;;;;;1.27;1.20;;;28.80;93.70;;;;;;5075539;28;20802;-62
2023/05/29 12:31:33;;;;;;;1.33;1.33;;;28.90;93.60;;;;;;5073464;28;20712;-61
2023/05/29 12:34:02;;;;;;;1.50;1.50;;;28.90;93.00;;;;;;5074140;28;20635;-61
2023/05/29 12:36:30;;;;;;;1.60;1.50;;;28.80;92.00;;;;;;5073821;28;20302;-61
2023/05/29 12:39:00;;;;;;;2.45;1.70;;;28.70;91.80;;;;;;5073892;28;20223;-61
2023/05/29 12:41:28;;;;;;;1.20;1.20;;;28.70;91.20;;;;;;5073345;28;20234;-62
2023/05/29 12:43:56;;;;;;;1.50;1.40;;;28.70;91.50;;;;;;5073854;28;20304;-62
2023/05/29 12:46:23;;;;;;;1.50;1.40;;;28.70;91.70;;;;;;5081392;28;20245;-62
2023/05/29 12:48:50;;;;;;;1.30;1.30;;;28.80;92.20;;;;;;5082755;28;20252;-62
2023/05/29 12:51:23;;;;;;;1.38;1.35;;;28.90;92.80;;;;;;5075028;28;20257;-62
2023/05/29 12:53:50;;;;;;;1.50;1.40;;;29.00;92.50;;;;;;5078342;28;20711;-61